BW-0003 weather

Seronga Airport
Seronga, North-West District, Botswana

Public forecast

Using degrees Celsius for public forecast. Weather courtesy of forecast.io.

METAR (pilot weather report)

Report is more than 6 hours old.

Closest report is Shakawe Airport, 43.1 nm (79.8 km) NW. Retrieved 2010/01/18 06:00 UTC (9 years ago):

FBSW 180600Z 05008KT 9999 TS FEW030 FEW035CB 29/16 Q////

TAF (pilot weather forecast)

Forecast is more than 12 hours old.

Closest forecast is Maun Airport, 89.6 nm (165.9 km) SE. Retrieved 2018/09/28 03:54 UTC (5 months ago):

TAF FBMN 280300Z 2803/2815 30010KT CAVOK